sensor_id;sensor_type;location;lat;lon;timestamp;pressure;altitude;pressure_sealevel;temperature;humidity
10881;BME280;5493;48.884;8.338;2022-10-16T00:00:43;99998.13;;;19.48;100.00
10881;BME280;5493;48.884;8.338;2022-10-16T00:03:09;100014.16;;;19.59;100.00
10881;BME280;5493;48.884;8.338;2022-10-16T00:05:41;100011.28;;;19.46;100.00
10881;BME280;5493;48.884;8.338;2022-10-16T00:08:08;100025.28;;;19.68;100.00
10881;BME280;5493;48.884;8.338;2022-10-16T00:10:35;100014.91;;;19.70;100.00
10881;BME280;5493;48.884;8.338;2022-10-16T00:13:03;100017.16;;;19.63;100.00
10881;BME280;5493;48.884;8.338;2022-10-16T00:15:30;100015.75;;;19.65;100.00
10881;BME280;5493;48.884;8.338;2022-10-16T00:17:59;100000.63;;;19.78;100.00
10881;BME280;5493;48.884;8.338;2022-10-16T00:20:25;100010.19;;;19.76;100.00
10881;BME280;5493;48.884;8.338;2022-10-16T00:22:52;100006.38;;;19.72;100.00
10881;BME280;5493;48.884;8.338;2022-10-16T00:25:18;100013.50;;;19.73;100.00
10881;BME280;5493;48.884;8.338;2022-10-16T00:27:45;100013.81;;;19.71;100.00
10881;BME280;5493;48.884;8.338;2022-10-16T00:30:13;100009.13;;;19.72;100.00
10881;BME280;5493;48.884;8.338;2022-10-16T00:32:39;100002.16;;;19.55;100.00
10881;BME280;5493;48.884;8.338;2022-10-16T00:35:06;99993.84;;;19.71;100.00
10881;BME280;5493;48.884;8.338;2022-10-16T00:37:33;100002.69;;;19.57;100.00
10881;BME280;5493;48.884;8.338;2022-10-16T00:39:59;100003.09;;;19.75;100.00
10881;BME280;5493;48.884;8.338;2022-10-16T00:42:26;100008.00;;;19.78;100.00
10881;BME280;5493;48.884;8.338;2022-10-16T00:44:54;100001.50;;;19.25;100.00
10881;BME280;5493;48.884;8.338;2022-10-16T00:47:27;100013.09;;;19.06;100.00
10881;BME280;5493;48.884;8.338;2022-10-16T00:49:59;100024.66;;;18.98;100.00
10881;BME280;5493;48.884;8.338;2022-10-16T00:52:26;100031.22;;;18.92;100.00
10881;BME280;5493;48.884;8.338;2022-10-16T00:54:54;100041.56;;;19.00;100.00
10881;BME280;5493;48.884;8.338;2022-10-16T00:57:21;100047.84;;;19.01;100.00
10881;BME280;5493;48.884;8.338;2022-10-16T00:59:47;100045.44;;;18.94;100.00
10881;BME280;5493;48.884;8.338;2022-10-16T01:02:16;100054.81;;;18.68;100.00
10881;BME280;5493;48.884;8.338;2022-10-16T01:04:46;100058.09;;;18.65;100.00
10881;BME280;5493;48.884;8.338;2022-10-16T01:07:20;100050.50;;;18.52;100.00
10881;BME280;5493;48.884;8.338;2022-10-16T01:09:59;100059.75;;;18.61;100.00
10881;BME280;5493;48.884;8.338;2022-10-16T01:12:36;100052.41;;;18.36;100.00
10881;BME280;5493;48.884;8.338;2022-10-16T01:15:10;100056.22;;;18.45;100.00
10881;BME280;5493;48.884;8.338;2022-10-16T01:17:42;100063.28;;;18.66;100.00
10881;BME280;5493;48.884;8.338;2022-10-16T01:20:18;100057.28;;;18.59;100.00
10881;BME280;5493;48.884;8.338;2022-10-16T01:22:56;100064.13;;;18.57;100.00
10881;BME280;5493;48.884;8.338;2022-10-16T01:25:36;100065.25;;;18.41;100.00
10881;BME280;5493;48.884;8.338;2022-10-16T01:28:08;100070.97;;;18.44;100.00
10881;BME280;5493;48.884;8.338;2022-10-16T01:30:37;100063.34;;;18.36;100.00
10881;BME280;5493;48.884;8.338;2022-10-16T01:33:10;100059.25;;;18.29;100.00
10881;BME280;5493;48.884;8.338;2022-10-16T01:35:43;100062.22;;;18.47;100.00
10881;BME280;5493;48.884;8.338;2022-10-16T01:38:15;100058.72;;;18.27;100.00
10881;BME280;5493;48.884;8.338;2022-10-16T01:40:46;100048.91;;;18.10;100.00
10881;BME280;5493;48.884;8.338;2022-10-16T01:43:17;100048.88;;;18.41;100.00
10881;BME280;5493;48.884;8.338;2022-10-16T01:45:45;100039.59;;;18.52;100.00
10881;BME280;5493;48.884;8.338;2022-10-16T01:48:14;100041.22;;;18.48;100.00
10881;BME280;5493;48.884;8.338;2022-10-16T01:50:44;100032.78;;;18.29;100.00
10881;BME280;5493;48.884;8.338;2022-10-16T01:53:15;100031.97;;;18.29;100.00
10881;BME280;5493;48.884;8.338;2022-10-16T01:55:46;100032.47;;;18.46;100.00
10881;BME280;5493;48.884;8.338;2022-10-16T01:58:15;100034.44;;;18.30;100.00
10881;BME280;5493;48.884;8.338;2022-10-16T02:00:43;100036.03;;;18.31;100.00
10881;BME280;5493;48.884;8.338;2022-10-16T02:03:12;100040.16;;;18.29;100.00
10881;BME280;5493;48.884;8.338;2022-10-16T02:05:42;100051.06;;;18.24;100.00
10881;BME280;5493;48.884;8.338;2022-10-16T02:08:11;100048.09;;;18.10;100.00
10881;BME280;5493;48.884;8.338;2022-10-16T02:10:38;100055.16;;;18.21;100.00
10881;BME280;5493;48.884;8.338;2022-10-16T02:13:07;100051.63;;;18.10;100.00
10881;BME280;5493;48.884;8.338;2022-10-16T02:15:36;100054.41;;;17.90;100.00
10881;BME280;5493;48.884;8.338;2022-10-16T02:18:03;100061.47;;;17.96;100.00
10881;BME280;5493;48.884;8.338;2022-10-16T02:20:34;100068.56;;;18.23;100.00
10881;BME280;5493;48.884;8.338;2022-10-16T02:23:03;100068.28;;;18.14;100.00
10881;BME280;5493;48.884;8.338;2022-10-16T02:25:32;100068.28;;;18.19;100.00
10881;BME280;5493;48.884;8.338;2022-10-16T02:28:04;100070.19;;;18.29;100.00
10881;BME280;5493;48.884;8.338;2022-10-16T02:30:36;100066.91;;;18.06;100.00
10881;BME280;5493;48.884;8.338;2022-10-16T02:33:07;100061.19;;;17.93;100.00
10881;BME280;5493;48.884;8.338;2022-10-16T02:35:36;100063.63;;;17.94;100.00
10881;BME280;5493;48.884;8.338;2022-10-16T02:38:04;100061.75;;;18.05;100.00
10881;BME280;5493;48.884;8.338;2022-10-16T02:40:31;100068.28;;;18.19;100.00
10881;BME280;5493;48.884;8.338;2022-10-16T02:42:57;100062.84;;;18.04;100.00
10881;BME280;5493;48.884;8.338;2022-10-16T02:45:24;100062.00;;;17.98;100.00
10881;BME280;5493;48.884;8.338;2022-10-16T02:47:50;100065.56;;;17.63;100.00
10881;BME280;5493;48.884;8.338;2022-10-16T02:50:18;100069.38;;;17.98;100.00
10881;BME280;5493;48.884;8.338;2022-10-16T02:52:45;100069.13;;;17.89;100.00
10881;BME280;5493;48.884;8.338;2022-10-16T02:55:12;100066.91;;;17.66;100.00
10881;BME280;5493;48.884;8.338;2022-10-16T02:57:38;100069.94;;;17.85;100.00
10881;BME280;5493;48.884;8.338;2022-10-16T03:00:06;100073.94;;;17.42;100.00
10881;BME280;5493;48.884;8.338;2022-10-16T03:02:33;100085.75;;;17.67;100.00
10881;BME280;5493;48.884;8.338;2022-10-16T03:04:59;100085.75;;;17.78;100.00
10881;BME280;5493;48.884;8.338;2022-10-16T03:07:27;100087.09;;;17.65;100.00
10881;BME280;5493;48.884;8.338;2022-10-16T03:09:54;100096.03;;;17.45;100.00
10881;BME280;5493;48.884;8.338;2022-10-16T03:12:21;100092.22;;;17.46;100.00
10881;BME280;5493;48.884;8.338;2022-10-16T03:14:47;100093.84;;;17.42;100.00
10881;BME280;5493;48.884;8.338;2022-10-16T03:17:14;100099.84;;;17.39;100.00
10881;BME280;5493;48.884;8.338;2022-10-16T03:19:41;100097.66;;;17.51;100.00
10881;BME280;5493;48.884;8.338;2022-10-16T03:22:08;100100.69;;;17.50;100.00
10881;BME280;5493;48.884;8.338;2022-10-16T03:24:36;100090.88;;;17.54;100.00
10881;BME280;5493;48.884;8.338;2022-10-16T03:27:02;100096.88;;;17.56;100.00
10881;BME280;5493;48.884;8.338;2022-10-16T03:29:29;100086.81;;;17.56;100.00
10881;BME280;5493;48.884;8.338;2022-10-16T03:31:57;100089.81;;;17.70;100.00
10881;BME280;5493;48.884;8.338;2022-10-16T03:34:23;100091.75;;;17.80;100.00
10881;BME280;5493;48.884;8.338;2022-10-16T03:36:50;100081.38;;;17.77;100.00
10881;BME280;5493;48.884;8.338;2022-10-16T03:39:17;100089.28;;;17.98;100.00
10881;BME280;5493;48.884;8.338;2022-10-16T03:41:45;100082.47;;;17.91;100.00
10881;BME280;5493;48.884;8.338;2022-10-16T03:44:12;100091.47;;;17.81;100.00
10881;BME280;5493;48.884;8.338;2022-10-16T03:46:39;100085.19;;;17.65;100.00
10881;BME280;5493;48.884;8.338;2022-10-16T03:49:06;100086.03;;;17.86;100.00
10881;BME280;5493;48.884;8.338;2022-10-16T03:51:32;100085.75;;;17.98;100.00
10881;BME280;5493;48.884;8.338;2022-10-16T03:53:59;100084.38;;;17.95;100.00
10881;BME280;5493;48.884;8.338;2022-10-16T03:56:26;100083.00;;;17.88;100.00
10881;BME280;5493;48.884;8.338;2022-10-16T03:58:53;100069.94;;;17.75;100.00
10881;BME280;5493;48.884;8.338;2022-10-16T04:01:20;100078.91;;;17.70;100.00
10881;BME280;5493;48.884;8.338;2022-10-16T04:03:46;100078.38;;;17.58;100.00
10881;BME280;5493;48.884;8.338;2022-10-16T04:06:13;100083.28;;;17.76;100.00
10881;BME280;5493;48.884;8.338;2022-10-16T04:08:42;100085.19;;;17.81;100.00
10881;BME280;5493;48.884;8.338;2022-10-16T04:11:09;100087.09;;;17.80;100.00
10881;BME280;5493;48.884;8.338;2022-10-16T04:13:35;100084.91;;;17.87;100.00
10881;BME280;5493;48.884;8.338;2022-10-16T04:16:04;100087.38;;;17.89;100.00
10881;BME280;5493;48.884;8.338;2022-10-16T04:18:30;100098.59;;;17.97;100.00
10881;BME280;5493;48.884;8.338;2022-10-16T04:21:02;100110.00;;;17.94;100.00
10881;BME280;5493;48.884;8.338;2022-10-16T04:23:28;100107.84;;;17.91;100.00
10881;BME280;5493;48.884;8.338;2022-10-16T04:25:55;100116.28;;;17.85;100.00
10881;BME280;5493;48.884;8.338;2022-10-16T04:28:21;100121.19;;;17.78;100.00
10881;BME280;5493;48.884;8.338;2022-10-16T04:30:48;100129.38;;;17.67;100.00
10881;BME280;5493;48.884;8.338;2022-10-16T04:33:16;100135.91;;;17.72;100.00
10881;BME280;5493;48.884;8.338;2022-10-16T04:35:42;100131.56;;;17.81;100.00
10881;BME280;5493;48.884;8.338;2022-10-16T04:38:09;100134.56;;;17.79;100.00
10881;BME280;5493;48.884;8.338;2022-10-16T04:40:35;100137.84;;;17.81;100.00
10881;BME280;5493;48.884;8.338;2022-10-16T04:43:02;100129.34;;;17.73;100.00
10881;BME280;5493;48.884;8.338;2022-10-16T04:45:29;100129.34;;;17.62;100.00
10881;BME280;5493;48.884;8.338;2022-10-16T04:47:56;100133.19;;;17.72;100.00
10881;BME280;5493;48.884;8.338;2022-10-16T04:50:25;100127.22;;;17.80;100.00
10881;BME280;5493;48.884;8.338;2022-10-16T04:52:51;100128.59;;;17.97;100.00
10881;BME280;5493;48.884;8.338;2022-10-16T04:55:18;100133.50;;;18.00;100.00
10881;BME280;5493;48.884;8.338;2022-10-16T04:57:44;100131.28;;;17.77;100.00
10881;BME280;5493;48.884;8.338;2022-10-16T05:00:12;100145.97;;;17.66;100.00
10881;BME280;5493;48.884;8.338;2022-10-16T05:02:38;100144.38;;;17.65;100.00
10881;BME280;5493;48.884;8.338;2022-10-16T05:05:05;100146.44;;;17.48;100.00
10881;BME280;5493;48.884;8.338;2022-10-16T05:07:33;100155.25;;;17.60;100.00
10881;BME280;5493;48.884;8.338;2022-10-16T05:10:00;100151.66;;;17.49;100.00
10881;BME280;5493;48.884;8.338;2022-10-16T05:12:26;100151.09;;;17.42;100.00
10881;BME280;5493;48.884;8.338;2022-10-16T05:14:53;100157.91;;;17.55;100.00
10881;BME280;5493;48.884;8.338;2022-10-16T05:17:23;100162.34;;;17.66;100.00
10881;BME280;5493;48.884;8.338;2022-10-16T05:19:50;100156.63;;;17.57;100.00
10881;BME280;5493;48.884;8.338;2022-10-16T05:22:17;100159.91;;;17.69;100.00
10881;BME280;5493;48.884;8.338;2022-10-16T05:24:45;100157.47;;;17.68;100.00
10881;BME280;5493;48.884;8.338;2022-10-16T05:27:11;100164.53;;;17.64;100.00
10881;BME280;5493;48.884;8.338;2022-10-16T05:29:44;100165.91;;;17.72;100.00
10881;BME280;5493;48.884;8.338;2022-10-16T05:32:10;100156.34;;;17.69;100.00
10881;BME280;5493;48.884;8.338;2022-10-16T05:34:37;100149.25;;;17.63;100.00
10881;BME280;5493;48.884;8.338;2022-10-16T05:37:04;100154.44;;;17.64;100.00
10881;BME280;5493;48.884;8.338;2022-10-16T05:39:31;100156.06;;;17.60;100.00
10881;BME280;5493;48.884;8.338;2022-10-16T05:41:59;100155.06;;;17.97;100.00
10881;BME280;5493;48.884;8.338;2022-10-16T05:44:25;100152.03;;;17.93;100.00
10881;BME280;5493;48.884;8.338;2022-10-16T05:46:52;100153.13;;;18.12;100.00
10881;BME280;5493;48.884;8.338;2022-10-16T05:49:18;100147.41;;;18.09;100.00
10881;BME280;5493;48.884;8.338;2022-10-16T05:51:45;100150.41;;;18.07;100.00
10881;BME280;5493;48.884;8.338;2022-10-16T05:54:11;100141.69;;;18.00;100.00
10881;BME280;5493;48.884;8.338;2022-10-16T05:56:38;100150.13;;;18.09;100.00
10881;BME280;5493;48.884;8.338;2022-10-16T05:59:06;100156.16;;;18.11;100.00
10881;BME280;5493;48.884;8.338;2022-10-16T06:01:32;100161.06;;;18.14;100.00
10881;BME280;5493;48.884;8.338;2022-10-16T06:04:00;100161.88;;;18.25;100.00
10881;BME280;5493;48.884;8.338;2022-10-16T06:06:30;100158.59;;;18.12;100.00
10881;BME280;5493;48.884;8.338;2022-10-16T06:08:57;100161.06;;;18.14;100.00
10881;BME280;5493;48.884;8.338;2022-10-16T06:11:26;100175.25;;;18.16;100.00
10881;BME280;5493;48.884;8.338;2022-10-16T06:13:55;100177.16;;;18.20;100.00
10881;BME280;5493;48.884;8.338;2022-10-16T06:16:24;100172.47;;;17.81;100.00
10881;BME280;5493;48.884;8.338;2022-10-16T06:18:52;100167.25;;;17.64;100.00
10881;BME280;5493;48.884;8.338;2022-10-16T06:21:20;100162.38;;;17.81;100.00
10881;BME280;5493;48.884;8.338;2022-10-16T06:23:47;100159.94;;;17.90;100.00
10881;BME280;5493;48.884;8.338;2022-10-16T06:26:15;100161.88;;;18.14;100.00
10881;BME280;5493;48.884;8.338;2022-10-16T06:28:42;100169.78;;;18.21;100.00
10881;BME280;5493;48.884;8.338;2022-10-16T06:31:09;100177.19;;;18.26;100.00
10881;BME280;5493;48.884;8.338;2022-10-16T06:33:38;100179.09;;;18.15;100.00
10881;BME280;5493;48.884;8.338;2022-10-16T06:36:07;100187.53;;;18.03;100.00
10881;BME280;5493;48.884;8.338;2022-10-16T06:38:34;100187.75;;;17.82;100.00
10881;BME280;5493;48.884;8.338;2022-10-16T06:41:01;100191.56;;;17.81;100.00
10881;BME280;5493;48.884;8.338;2022-10-16T06:43:28;100189.69;;;18.06;100.00
10881;BME280;5493;48.884;8.338;2022-10-16T06:45:58;100185.88;;;18.07;100.00
10881;BME280;5493;48.884;8.338;2022-10-16T06:48:25;100184.81;;;18.13;100.00
10881;BME280;5493;48.884;8.338;2022-10-16T06:50:58;100180.44;;;18.33;100.00
10881;BME280;5493;48.884;8.338;2022-10-16T06:53:25;100174.97;;;18.28;100.00
10881;BME280;5493;48.884;8.338;2022-10-16T06:55:52;100179.88;;;18.20;100.00
10881;BME280;5493;48.884;8.338;2022-10-16T06:58:19;100191.09;;;18.19;100.00
10881;BME280;5493;48.884;8.338;2022-10-16T07:00:46;100192.19;;;18.18;100.00
10881;BME280;5493;48.884;8.338;2022-10-16T07:03:12;100196.81;;;18.23;100.00
10881;BME280;5493;48.884;8.338;2022-10-16T07:05:40;100196.56;;;18.29;100.00
10881;BME280;5493;48.884;8.338;2022-10-16T07:08:08;100189.44;;;18.38;100.00
10881;BME280;5493;48.884;8.338;2022-10-16T07:10:35;100197.66;;;18.33;100.00
10881;BME280;5493;48.884;8.338;2022-10-16T07:13:02;100198.75;;;18.57;100.00
10881;BME280;5493;48.884;8.338;2022-10-16T07:15:28;100205.88;;;18.74;100.00
10881;BME280;5493;48.884;8.338;2022-10-16T07:17:55;100211.31;;;18.68;100.00
10881;BME280;5493;48.884;8.338;2022-10-16T07:20:21;100212.94;;;18.80;100.00
10881;BME280;5493;48.884;8.338;2022-10-16T07:22:48;100211.59;;;18.62;100.00
10881;BME280;5493;48.884;8.338;2022-10-16T07:25:16;100217.88;;;18.67;100.00
10881;BME280;5493;48.884;8.338;2022-10-16T07:27:42;100217.03;;;18.82;100.00
10881;BME280;5493;48.884;8.338;2022-10-16T07:30:09;100224.13;;;18.83;100.00
10881;BME280;5493;48.884;8.338;2022-10-16T07:32:36;100222.53;;;18.77;100.00
10881;BME280;5493;48.884;8.338;2022-10-16T07:35:03;100236.44;;;18.60;100.00
10881;BME280;5493;48.884;8.338;2022-10-16T07:37:30;100233.97;;;18.74;100.00
10881;BME280;5493;48.884;8.338;2022-10-16T07:39:56;100237.19;;;19.06;100.00
10881;BME280;5493;48.884;8.338;2022-10-16T07:42:24;100234.19;;;19.08;100.00
10881;BME280;5493;48.884;8.338;2022-10-16T07:44:51;100242.66;;;19.16;100.00
10881;BME280;5493;48.884;8.338;2022-10-16T07:47:17;100249.72;;;19.33;100.00
10881;BME280;5493;48.884;8.338;2022-10-16T07:49:44;100254.34;;;19.47;100.00
10881;BME280;5493;48.884;8.338;2022-10-16T07:52:10;100260.06;;;19.56;100.00
10881;BME280;5493;48.884;8.338;2022-10-16T07:54:37;100259.81;;;19.47;100.00
10881;BME280;5493;48.884;8.338;2022-10-16T07:57:03;100261.78;;;19.22;100.00
10881;BME280;5493;48.884;8.338;2022-10-16T07:59:31;100274.09;;;19.24;100.00
10881;BME280;5493;48.884;8.338;2022-10-16T08:01:58;100269.94;;;19.47;100.00
10881;BME280;5493;48.884;8.338;2022-10-16T08:04:24;100274.28;;;19.63;100.00
10881;BME280;5493;48.884;8.338;2022-10-16T08:06:51;100276.19;;;19.57;100.00
10881;BME280;5493;48.884;8.338;2022-10-16T08:09:19;100271.06;;;19.46;100.00
10881;BME280;5493;48.884;8.338;2022-10-16T08:11:46;100268.81;;;19.63;100.00
10881;BME280;5493;48.884;8.338;2022-10-16T08:14:12;100268.59;;;19.49;100.00
10881;BME280;5493;48.884;8.338;2022-10-16T08:16:40;100267.66;;;19.69;100.00
10881;BME280;5493;48.884;8.338;2022-10-16T08:19:07;100264.16;;;19.63;100.00
10881;BME280;5493;48.884;8.338;2022-10-16T08:21:33;100258.38;;;19.70;100.00
10881;BME280;5493;48.884;8.338;2022-10-16T08:24:00;100251.19;;;19.84;100.00
10881;BME280;5493;48.884;8.338;2022-10-16T08:26:27;100252.69;;;20.10;100.00
10881;BME280;5493;48.884;8.338;2022-10-16T08:28:53;100249.47;;;20.03;100.00
10881;BME280;5493;48.884;8.338;2022-10-16T08:31:20;100245.16;;;20.36;100.00
10881;BME280;5493;48.884;8.338;2022-10-16T08:33:48;100243.59;;;20.20;100.00
10881;BME280;5493;48.884;8.338;2022-10-16T08:36:16;100255.72;;;20.53;100.00
10881;BME280;5493;48.884;8.338;2022-10-16T08:38:43;100265.72;;;20.68;100.00
10881;BME280;5493;48.884;8.338;2022-10-16T08:41:22;100268.13;;;20.74;100.00
10881;BME280;5493;48.884;8.338;2022-10-16T08:44:03;100268.34;;;20.83;100.00
10881;BME280;5493;48.884;8.338;2022-10-16T08:46:41;100267.19;;;20.89;100.00
10881;BME280;5493;48.884;8.338;2022-10-16T08:49:13;100284.72;;;21.22;100.00
10881;BME280;5493;48.884;8.338;2022-10-16T08:51:40;100283.38;;;21.19;100.00
10881;BME280;5493;48.884;8.338;2022-10-16T08:54:20;100293.66;;;21.03;100.00
10881;BME280;5493;48.884;8.338;2022-10-16T08:56:48;100297.09;;;21.19;100.00
10881;BME280;5493;48.884;8.338;2022-10-16T08:59:16;100294.09;;;20.87;100.00
10881;BME280;5493;48.884;8.338;2022-10-16T09:01:45;100290.47;;;20.91;100.00
10881;BME280;5493;48.884;8.338;2022-10-16T09:04:42;100297.44;;;21.07;100.00
10881;BME280;5493;48.884;8.338;2022-10-16T09:07:19;100317.06;;;21.25;100.00
10881;BME280;5493;48.884;8.338;2022-10-16T09:09:57;100311.53;;;21.53;100.00
10881;BME280;5493;48.884;8.338;2022-10-16T09:12:32;100312.63;;;21.52;100.00
10881;BME280;5493;48.884;8.338;2022-10-16T09:15:10;100324.69;;;21.56;100.00
10881;BME280;5493;48.884;8.338;2022-10-16T09:17:45;100316.38;;;21.85;100.00
10881;BME280;5493;48.884;8.338;2022-10-16T09:20:25;100321.38;;;22.26;100.00
10881;BME280;5493;48.884;8.338;2022-10-16T09:22:55;100321.44;;;22.39;100.00
10881;BME280;5493;48.884;8.338;2022-10-16T09:25:27;100318.03;;;22.47;100.00
10881;BME280;5493;48.884;8.338;2022-10-16T09:27:55;100324.59;;;22.51;100.00
10881;BME280;5493;48.884;8.338;2022-10-16T09:30:22;100330.97;;;22.66;100.00
10881;BME280;5493;48.884;8.338;2022-10-16T09:32:51;100338.19;;;22.80;100.00
10881;BME280;5493;48.884;8.338;2022-10-16T09:35:22;100334.19;;;22.73;100.00
10881;BME280;5493;48.884;8.338;2022-10-16T09:37:51;100345.38;;;22.57;100.00
10881;BME280;5493;48.884;8.338;2022-10-16T09:40:26;100339.22;;;22.47;100.00
10881;BME280;5493;48.884;8.338;2022-10-16T09:43:06;100331.06;;;22.42;100.00
10881;BME280;5493;48.884;8.338;2022-10-16T09:45:37;100345.91;;;22.41;100.00
10881;BME280;5493;48.884;8.338;2022-10-16T09:48:10;100356.94;;;22.36;100.00
10881;BME280;5493;48.884;8.338;2022-10-16T09:50:39;100344.94;;;22.50;100.00
10881;BME280;5493;48.884;8.338;2022-10-16T09:53:11;100360.31;;;22.51;100.00
10881;BME280;5493;48.884;8.338;2022-10-16T09:55:48;100362.22;;;22.32;100.00
10881;BME280;5493;48.884;8.338;2022-10-16T09:58:15;100359.72;;;22.54;100.00
10881;BME280;5493;48.884;8.338;2022-10-16T10:00:49;100358.81;;;22.59;100.00
10881;BME280;5493;48.884;8.338;2022-10-16T10:03:34;100358.41;;;22.71;100.00
10881;BME280;5493;48.884;8.338;2022-10-16T10:06:07;100361.34;;;22.55;100.00
10881;BME280;5493;48.884;8.338;2022-10-16T10:08:53;100368.16;;;22.39;100.00
10881;BME280;5493;48.884;8.338;2022-10-16T10:11:38;100368.44;;;22.19;100.00
10881;BME280;5493;48.884;8.338;2022-10-16T10:14:05;100364.72;;;22.29;100.00
10881;BME280;5493;48.884;8.338;2022-10-16T10:16:32;100370.28;;;22.05;100.00
10881;BME280;5493;48.884;8.338;2022-10-16T10:18:59;100376.94;;;22.41;100.00
10881;BME280;5493;48.884;8.338;2022-10-16T10:21:27;100368.38;;;22.43;100.00
10881;BME280;5493;48.884;8.338;2022-10-16T10:23:56;100371.06;;;22.48;100.00
10881;BME280;5493;48.884;8.338;2022-10-16T10:26:24;100379.06;;;22.68;100.00
10881;BME280;5493;48.884;8.338;2022-10-16T10:29:00;100372.44;;;22.69;100.00
10881;BME280;5493;48.884;8.338;2022-10-16T10:31:36;100374.59;;;22.72;100.00
10881;BME280;5493;48.884;8.338;2022-10-16T10:34:24;100375.69;;;22.90;100.00
10881;BME280;5493;48.884;8.338;2022-10-16T10:37:00;100362.34;;;23.16;100.00
10881;BME280;5493;48.884;8.338;2022-10-16T10:39:33;100363.81;;;23.27;100.00
10881;BME280;5493;48.884;8.338;2022-10-16T10:42:14;100362.88;;;23.18;100.00
10881;BME280;5493;48.884;8.338;2022-10-16T10:44:55;100355.88;;;23.58;100.00
10881;BME280;5493;48.884;8.338;2022-10-16T10:47:28;100351.28;;;23.80;100.00
10881;BME280;5493;48.884;8.338;2022-10-16T10:50:05;100341.63;;;23.69;100.00
10881;BME280;5493;48.884;8.338;2022-10-16T10:52:42;100347.00;;;23.88;100.00
10881;BME280;5493;48.884;8.338;2022-10-16T10:55:16;100353.38;;;24.16;100.00
10881;BME280;5493;48.884;8.338;2022-10-16T10:57:58;100365.41;;;24.20;100.00
10881;BME280;5493;48.884;8.338;2022-10-16T11:00:28;100372.91;;;24.41;100.00
10881;BME280;5493;48.884;8.338;2022-10-16T11:03:04;100359.69;;;24.16;100.00
10881;BME280;5493;48.884;8.338;2022-10-16T11:05:41;100360.19;;;24.18;100.00
10881;BME280;5493;48.884;8.338;2022-10-16T11:08:15;100362.31;;;24.08;100.00
10881;BME280;5493;48.884;8.338;2022-10-16T11:10:50;100348.03;;;24.19;100.00
10881;BME280;5493;48.884;8.338;2022-10-16T11:13:28;100350.16;;;24.36;100.00
10881;BME280;5493;48.884;8.338;2022-10-16T11:15:58;100345.88;;;24.30;100.00
10881;BME280;5493;48.884;8.338;2022-10-16T11:18:32;100351.28;;;24.71;100.00
10881;BME280;5493;48.884;8.338;2022-10-16T11:21:04;100347.75;;;25.15;100.00
10881;BME280;5493;48.884;8.338;2022-10-16T11:23:38;100339.06;;;25.30;100.00
10881;BME280;5493;48.884;8.338;2022-10-16T11:26:13;100337.22;;;25.47;100.00
10881;BME280;5493;48.884;8.338;2022-10-16T11:28:45;100330.66;;;25.57;100.00
10881;BME280;5493;48.884;8.338;2022-10-16T11:31:17;100318.19;;;25.68;100.00
10881;BME280;5493;48.884;8.338;2022-10-16T11:33:51;100323.63;;;25.51;100.00
10881;BME280;5493;48.884;8.338;2022-10-16T11:36:23;100317.88;;;26.18;100.00
10881;BME280;5493;48.884;8.338;2022-10-16T11:38:59;100315.81;;;26.40;100.00
10881;BME280;5493;48.884;8.338;2022-10-16T11:41:34;100308.31;;;26.92;100.00
10881;BME280;5493;48.884;8.338;2022-10-16T11:44:13;100310.56;;;26.99;100.00
10881;BME280;5493;48.884;8.338;2022-10-16T11:46:48;100308.78;;;26.43;100.00
10881;BME280;5493;48.884;8.338;2022-10-16T11:49:19;100320.34;;;26.79;100.00
10881;BME280;5493;48.884;8.338;2022-10-16T11:51:54;100322.63;;;26.77;100.00
10881;BME280;5493;48.884;8.338;2022-10-16T11:54:29;100330.44;;;26.50;100.00
10881;BME280;5493;48.884;8.338;2022-10-16T11:57:03;100331.97;;;26.08;100.00
10881;BME280;5493;48.884;8.338;2022-10-16T11:59:39;100336.28;;;26.22;100.00
10881;BME280;5493;48.884;8.338;2022-10-16T12:02:28;100329.09;;;26.30;100.00
10881;BME280;5493;48.884;8.338;2022-10-16T12:05:06;100323.75;;;26.42;100.00
10881;BME280;5493;48.884;8.338;2022-10-16T12:07:41;100320.16;;;26.41;100.00
10881;BME280;5493;48.884;8.338;2022-10-16T12:10:19;100327.66;;;25.84;100.00
10881;BME280;5493;48.884;8.338;2022-10-16T12:12:46;100316.03;;;26.13;100.00
10881;BME280;5493;48.884;8.338;2022-10-16T12:15:23;100316.56;;;25.67;100.00
10881;BME280;5493;48.884;8.338;2022-10-16T12:17:50;100317.94;;;25.95;100.00
10881;BME280;5493;48.884;8.338;2022-10-16T12:20:26;100314.19;;;25.91;100.00
10881;BME280;5493;48.884;8.338;2022-10-16T12:22:56;100316.63;;;25.84;100.00
10881;BME280;5493;48.884;8.338;2022-10-16T12:25:27;100316.56;;;25.67;100.00
10881;BME280;5493;48.884;8.338;2022-10-16T12:28:00;100316.41;;;25.72;100.00
10881;BME280;5493;48.884;8.338;2022-10-16T12:30:29;100323.63;;;25.51;100.00
10881;BME280;5493;48.884;8.338;2022-10-16T12:32:57;100313.00;;;25.44;100.00
10881;BME280;5493;48.884;8.338;2022-10-16T12:35:26;100318.78;;;25.57;100.00
10881;BME280;5493;48.884;8.338;2022-10-16T12:37:54;100311.69;;;25.64;100.00
10881;BME280;5493;48.884;8.338;2022-10-16T12:40:33;100308.88;;;25.56;100.00
10881;BME280;5493;48.884;8.338;2022-10-16T12:43:12;100309.53;;;25.61;100.00
10881;BME280;5493;48.884;8.338;2022-10-16T12:45:39;100307.09;;;25.60;100.00
10881;BME280;5493;48.884;8.338;2022-10-16T12:48:19;100305.28;;;25.55;100.00
10881;BME280;5493;48.884;8.338;2022-10-16T12:50:46;100315.53;;;25.55;100.00
10881;BME280;5493;48.884;8.338;2022-10-16T12:53:21;100314.22;;;25.52;100.00
10881;BME280;5493;48.884;8.338;2022-10-16T12:55:57;100318.56;;;25.22;100.00
10881;BME280;5493;48.884;8.338;2022-10-16T12:58:51;100317.34;;;25.37;100.00
10881;BME280;5493;48.884;8.338;2022-10-16T13:01:29;100316.44;;;25.19;100.00
10881;BME280;5493;48.884;8.338;2022-10-16T13:07:05;100308.22;;;25.28;100.00